sensor_id;sensor_type;location;lat;lon;timestamp;temperature;humidity
20570;DHT22;10443;54.818;9.666;2022-11-21T00:01:48;0.30;99.90
20570;DHT22;10443;54.818;9.666;2022-11-21T00:04:19;0.30;99.90
20570;DHT22;10443;54.818;9.666;2022-11-21T00:06:46;0.30;99.90
20570;DHT22;10443;54.818;9.666;2022-11-21T00:09:13;0.30;99.90
20570;DHT22;10443;54.818;9.666;2022-11-21T00:11:46;0.30;99.90
20570;DHT22;10443;54.818;9.666;2022-11-21T00:14:16;0.30;99.90
20570;DHT22;10443;54.818;9.666;2022-11-21T00:16:45;0.30;99.90
20570;DHT22;10443;54.818;9.666;2022-11-21T00:19:16;0.30;99.90
20570;DHT22;10443;54.818;9.666;2022-11-21T00:21:59;0.30;99.90
20570;DHT22;10443;54.818;9.666;2022-11-21T00:24:27;0.30;99.90
20570;DHT22;10443;54.818;9.666;2022-11-21T00:26:54;0.30;99.90
20570;DHT22;10443;54.818;9.666;2022-11-21T00:29:21;0.30;99.90
20570;DHT22;10443;54.818;9.666;2022-11-21T00:31:48;0.30;99.90
20570;DHT22;10443;54.818;9.666;2022-11-21T00:34:15;0.40;99.90
20570;DHT22;10443;54.818;9.666;2022-11-21T00:36:43;0.40;99.90
20570;DHT22;10443;54.818;9.666;2022-11-21T00:39:10;0.40;99.90
20570;DHT22;10443;54.818;9.666;2022-11-21T00:41:38;0.40;99.90
20570;DHT22;10443;54.818;9.666;2022-11-21T00:44:05;0.40;99.90
20570;DHT22;10443;54.818;9.666;2022-11-21T00:46:33;0.50;99.90
20570;DHT22;10443;54.818;9.666;2022-11-21T00:49:00;0.50;99.90
20570;DHT22;10443;54.818;9.666;2022-11-21T00:51:28;0.50;99.90
20570;DHT22;10443;54.818;9.666;2022-11-21T00:53:55;0.60;99.90
20570;DHT22;10443;54.818;9.666;2022-11-21T00:56:22;0.60;99.90
20570;DHT22;10443;54.818;9.666;2022-11-21T00:58:50;0.70;99.90
20570;DHT22;10443;54.818;9.666;2022-11-21T01:01:17;0.60;99.90
20570;DHT22;10443;54.818;9.666;2022-11-21T01:03:44;0.70;99.90
20570;DHT22;10443;54.818;9.666;2022-11-21T01:06:13;0.70;99.90
20570;DHT22;10443;54.818;9.666;2022-11-21T01:08:42;0.70;99.90
20570;DHT22;10443;54.818;9.666;2022-11-21T01:11:16;0.70;99.90
20570;DHT22;10443;54.818;9.666;2022-11-21T01:13:43;0.60;99.90
20570;DHT22;10443;54.818;9.666;2022-11-21T01:16:15;0.60;99.90
20570;DHT22;10443;54.818;9.666;2022-11-21T01:18:43;0.60;99.90
20570;DHT22;10443;54.818;9.666;2022-11-21T01:21:24;0.50;99.90
20570;DHT22;10443;54.818;9.666;2022-11-21T01:23:52;0.50;99.90
20570;DHT22;10443;54.818;9.666;2022-11-21T01:26:21;0.50;99.90
20570;DHT22;10443;54.818;9.666;2022-11-21T01:28:49;0.50;99.90
20570;DHT22;10443;54.818;9.666;2022-11-21T01:31:18;0.50;99.90
20570;DHT22;10443;54.818;9.666;2022-11-21T01:33:45;0.50;99.90
20570;DHT22;10443;54.818;9.666;2022-11-21T01:36:15;0.40;99.90
20570;DHT22;10443;54.818;9.666;2022-11-21T01:38:44;0.50;99.90
20570;DHT22;10443;54.818;9.666;2022-11-21T01:41:12;0.50;99.90
20570;DHT22;10443;54.818;9.666;2022-11-21T01:43:39;0.40;99.90
20570;DHT22;10443;54.818;9.666;2022-11-21T01:46:13;0.50;99.90
20570;DHT22;10443;54.818;9.666;2022-11-21T01:54:07;0.40;99.90
20570;DHT22;10443;54.818;9.666;2022-11-21T01:56:42;0.40;99.90
20570;DHT22;10443;54.818;9.666;2022-11-21T01:59:13;0.40;99.90
20570;DHT22;10443;54.818;9.666;2022-11-21T02:01:43;0.40;99.90
20570;DHT22;10443;54.818;9.666;2022-11-21T02:04:10;0.30;99.90
20570;DHT22;10443;54.818;9.666;2022-11-21T02:06:36;0.30;99.90
20570;DHT22;10443;54.818;9.666;2022-11-21T02:09:04;0.30;99.90
20570;DHT22;10443;54.818;9.666;2022-11-21T02:11:41;0.30;99.90
20570;DHT22;10443;54.818;9.666;2022-11-21T02:14:09;0.30;99.90
20570;DHT22;10443;54.818;9.666;2022-11-21T02:16:37;0.30;99.90
20570;DHT22;10443;54.818;9.666;2022-11-21T02:19:07;0.30;99.90
20570;DHT22;10443;54.818;9.666;2022-11-21T02:21:50;0.30;99.90
20570;DHT22;10443;54.818;9.666;2022-11-21T02:26:56;0.30;99.90
20570;DHT22;10443;54.818;9.666;2022-11-21T02:29:23;0.30;99.90
20570;DHT22;10443;54.818;9.666;2022-11-21T02:31:49;0.30;99.90
20570;DHT22;10443;54.818;9.666;2022-11-21T02:34:17;0.30;99.90
20570;DHT22;10443;54.818;9.666;2022-11-21T02:36:47;0.30;99.90
20570;DHT22;10443;54.818;9.666;2022-11-21T02:39:22;0.30;99.90
20570;DHT22;10443;54.818;9.666;2022-11-21T02:41:58;0.30;99.90
20570;DHT22;10443;54.818;9.666;2022-11-21T02:44:33;0.30;99.90
20570;DHT22;10443;54.818;9.666;2022-11-21T02:47:00;0.30;99.90
20570;DHT22;10443;54.818;9.666;2022-11-21T02:49:33;0.30;99.90
20570;DHT22;10443;54.818;9.666;2022-11-21T02:52:03;0.30;99.90
20570;DHT22;10443;54.818;9.666;2022-11-21T02:54:30;0.30;99.90
20570;DHT22;10443;54.818;9.666;2022-11-21T02:56:56;0.20;99.90
20570;DHT22;10443;54.818;9.666;2022-11-21T02:59:23;0.30;99.90
20570;DHT22;10443;54.818;9.666;2022-11-21T03:01:49;0.20;99.90
20570;DHT22;10443;54.818;9.666;2022-11-21T03:04:16;0.30;99.90
20570;DHT22;10443;54.818;9.666;2022-11-21T03:06:42;0.20;99.90
20570;DHT22;10443;54.818;9.666;2022-11-21T03:09:09;0.30;99.90
20570;DHT22;10443;54.818;9.666;2022-11-21T03:11:38;0.30;99.90
20570;DHT22;10443;54.818;9.666;2022-11-21T03:14:04;0.40;99.90
20570;DHT22;10443;54.818;9.666;2022-11-21T03:16:31;0.30;99.90
20570;DHT22;10443;54.818;9.666;2022-11-21T03:18:57;0.20;99.90
20570;DHT22;10443;54.818;9.666;2022-11-21T03:21:24;0.30;99.90
20570;DHT22;10443;54.818;9.666;2022-11-21T03:23:51;0.30;99.90
20570;DHT22;10443;54.818;9.666;2022-11-21T03:26:18;0.30;99.90
20570;DHT22;10443;54.818;9.666;2022-11-21T03:28:44;0.30;99.90
20570;DHT22;10443;54.818;9.666;2022-11-21T03:31:11;0.30;99.90
20570;DHT22;10443;54.818;9.666;2022-11-21T03:33:37;0.40;99.90
20570;DHT22;10443;54.818;9.666;2022-11-21T03:36:04;0.40;99.90
20570;DHT22;10443;54.818;9.666;2022-11-21T03:38:30;0.30;99.90
20570;DHT22;10443;54.818;9.666;2022-11-21T03:41:02;0.40;99.90
20570;DHT22;10443;54.818;9.666;2022-11-21T03:43:29;0.40;99.90
20570;DHT22;10443;54.818;9.666;2022-11-21T03:45:55;0.40;99.90
20570;DHT22;10443;54.818;9.666;2022-11-21T03:48:22;0.40;99.90
20570;DHT22;10443;54.818;9.666;2022-11-21T03:50:49;0.40;99.90
20570;DHT22;10443;54.818;9.666;2022-11-21T03:53:15;0.40;99.90
20570;DHT22;10443;54.818;9.666;2022-11-21T03:55:42;0.40;99.90
20570;DHT22;10443;54.818;9.666;2022-11-21T03:58:08;0.40;99.90
20570;DHT22;10443;54.818;9.666;2022-11-21T04:00:35;0.40;99.90
20570;DHT22;10443;54.818;9.666;2022-11-21T04:03:01;0.40;99.90
20570;DHT22;10443;54.818;9.666;2022-11-21T04:05:28;0.40;99.90
20570;DHT22;10443;54.818;9.666;2022-11-21T04:07:55;0.40;99.90
20570;DHT22;10443;54.818;9.666;2022-11-21T04:10:21;0.30;99.90
20570;DHT22;10443;54.818;9.666;2022-11-21T04:12:49;0.30;99.90
20570;DHT22;10443;54.818;9.666;2022-11-21T04:15:16;0.40;99.90
20570;DHT22;10443;54.818;9.666;2022-11-21T04:17:42;0.40;99.90
20570;DHT22;10443;54.818;9.666;2022-11-21T04:20:09;0.40;99.90
20570;DHT22;10443;54.818;9.666;2022-11-21T04:22:36;0.30;99.90
20570;DHT22;10443;54.818;9.666;2022-11-21T04:25:03;0.40;99.90
20570;DHT22;10443;54.818;9.666;2022-11-21T04:27:30;0.40;99.90
20570;DHT22;10443;54.818;9.666;2022-11-21T04:29:56;0.40;99.90
20570;DHT22;10443;54.818;9.666;2022-11-21T04:32:23;0.30;99.90
20570;DHT22;10443;54.818;9.666;2022-11-21T04:34:49;0.30;99.90
20570;DHT22;10443;54.818;9.666;2022-11-21T04:37:16;0.30;99.90
20570;DHT22;10443;54.818;9.666;2022-11-21T04:39:42;0.30;99.90
20570;DHT22;10443;54.818;9.666;2022-11-21T04:42:09;0.20;99.90
20570;DHT22;10443;54.818;9.666;2022-11-21T04:44:35;0.30;99.90
20570;DHT22;10443;54.818;9.666;2022-11-21T04:47:02;0.20;99.90
20570;DHT22;10443;54.818;9.666;2022-11-21T04:49:31;0.20;99.90
20570;DHT22;10443;54.818;9.666;2022-11-21T04:51:57;0.20;99.90
20570;DHT22;10443;54.818;9.666;2022-11-21T04:54:24;0.30;99.90
20570;DHT22;10443;54.818;9.666;2022-11-21T04:56:51;0.30;99.90
20570;DHT22;10443;54.818;9.666;2022-11-21T04:59:18;0.30;99.90
20570;DHT22;10443;54.818;9.666;2022-11-21T05:01:44;0.30;99.90
20570;DHT22;10443;54.818;9.666;2022-11-21T05:04:11;0.30;99.90
20570;DHT22;10443;54.818;9.666;2022-11-21T05:06:37;0.30;99.90
20570;DHT22;10443;54.818;9.666;2022-11-21T05:09:04;0.30;99.90
20570;DHT22;10443;54.818;9.666;2022-11-21T05:11:30;0.40;99.90
20570;DHT22;10443;54.818;9.666;2022-11-21T05:14:16;0.40;99.90
20570;DHT22;10443;54.818;9.666;2022-11-21T05:16:42;0.30;99.90
20570;DHT22;10443;54.818;9.666;2022-11-21T05:19:09;0.40;99.90
20570;DHT22;10443;54.818;9.666;2022-11-21T05:21:36;0.40;99.90
20570;DHT22;10443;54.818;9.666;2022-11-21T05:24:02;0.40;99.90
20570;DHT22;10443;54.818;9.666;2022-11-21T05:26:29;0.40;99.90
20570;DHT22;10443;54.818;9.666;2022-11-21T05:28:55;0.40;99.90
20570;DHT22;10443;54.818;9.666;2022-11-21T05:31:22;0.40;99.90
20570;DHT22;10443;54.818;9.666;2022-11-21T05:33:48;0.40;99.90
20570;DHT22;10443;54.818;9.666;2022-11-21T05:36:15;0.40;99.90
20570;DHT22;10443;54.818;9.666;2022-11-21T05:38:42;0.40;99.90
20570;DHT22;10443;54.818;9.666;2022-11-21T05:41:08;0.40;99.90
20570;DHT22;10443;54.818;9.666;2022-11-21T05:43:35;0.40;99.90
20570;DHT22;10443;54.818;9.666;2022-11-21T05:46:17;0.40;99.90
20570;DHT22;10443;54.818;9.666;2022-11-21T05:48:45;0.40;99.90
20570;DHT22;10443;54.818;9.666;2022-11-21T05:51:13;0.40;99.90
20570;DHT22;10443;54.818;9.666;2022-11-21T05:53:40;0.40;99.90
20570;DHT22;10443;54.818;9.666;2022-11-21T05:56:09;0.50;99.90
20570;DHT22;10443;54.818;9.666;2022-11-21T05:58:37;0.50;99.90
20570;DHT22;10443;54.818;9.666;2022-11-21T06:01:05;0.50;99.90
20570;DHT22;10443;54.818;9.666;2022-11-21T06:03:35;0.50;99.90
20570;DHT22;10443;54.818;9.666;2022-11-21T06:06:13;0.50;99.90
20570;DHT22;10443;54.818;9.666;2022-11-21T06:08:45;0.50;99.90
20570;DHT22;10443;54.818;9.666;2022-11-21T06:11:14;0.60;99.90
20570;DHT22;10443;54.818;9.666;2022-11-21T06:13:41;0.50;99.90
20570;DHT22;10443;54.818;9.666;2022-11-21T06:16:10;0.60;99.90
20570;DHT22;10443;54.818;9.666;2022-11-21T06:18:39;0.50;99.90
20570;DHT22;10443;54.818;9.666;2022-11-21T06:21:27;0.50;99.90
20570;DHT22;10443;54.818;9.666;2022-11-21T06:23:56;0.50;99.90
20570;DHT22;10443;54.818;9.666;2022-11-21T06:26:24;0.50;99.90
20570;DHT22;10443;54.818;9.666;2022-11-21T06:28:51;0.50;99.90
20570;DHT22;10443;54.818;9.666;2022-11-21T06:31:24;0.50;99.90
20570;DHT22;10443;54.818;9.666;2022-11-21T06:33:52;0.50;99.90
20570;DHT22;10443;54.818;9.666;2022-11-21T06:36:19;0.50;99.90
20570;DHT22;10443;54.818;9.666;2022-11-21T06:38:46;0.60;99.90
20570;DHT22;10443;54.818;9.666;2022-11-21T06:41:15;0.60;99.90
20570;DHT22;10443;54.818;9.666;2022-11-21T06:43:43;0.60;99.90
20570;DHT22;10443;54.818;9.666;2022-11-21T06:46:10;0.60;99.90
20570;DHT22;10443;54.818;9.666;2022-11-21T06:48:37;0.60;99.90
20570;DHT22;10443;54.818;9.666;2022-11-21T06:51:16;0.70;99.90
20570;DHT22;10443;54.818;9.666;2022-11-21T06:53:43;0.60;99.90
20570;DHT22;10443;54.818;9.666;2022-11-21T06:56:10;0.70;99.90
20570;DHT22;10443;54.818;9.666;2022-11-21T06:58:37;0.70;99.90
20570;DHT22;10443;54.818;9.666;2022-11-21T07:01:08;0.70;99.90
20570;DHT22;10443;54.818;9.666;2022-11-21T07:03:35;0.80;99.90
20570;DHT22;10443;54.818;9.666;2022-11-21T07:06:02;0.70;99.90
20570;DHT22;10443;54.818;9.666;2022-11-21T07:08:30;0.80;99.90
20570;DHT22;10443;54.818;9.666;2022-11-21T07:11:03;0.70;99.90
20570;DHT22;10443;54.818;9.666;2022-11-21T07:13:51;0.80;99.90
20570;DHT22;10443;54.818;9.666;2022-11-21T07:16:18;0.80;99.90
20570;DHT22;10443;54.818;9.666;2022-11-21T07:18:47;0.80;99.90
20570;DHT22;10443;54.818;9.666;2022-11-21T07:21:15;0.70;99.90
20570;DHT22;10443;54.818;9.666;2022-11-21T07:23:42;0.80;99.90
20570;DHT22;10443;54.818;9.666;2022-11-21T07:26:10;0.70;99.90
20570;DHT22;10443;54.818;9.666;2022-11-21T07:28:40;0.80;99.90
20570;DHT22;10443;54.818;9.666;2022-11-21T07:31:09;0.80;99.90
20570;DHT22;10443;54.818;9.666;2022-11-21T07:33:41;0.80;99.90
20570;DHT22;10443;54.818;9.666;2022-11-21T07:36:15;0.80;99.90
20570;DHT22;10443;54.818;9.666;2022-11-21T07:38:45;0.80;99.90
20570;DHT22;10443;54.818;9.666;2022-11-21T07:41:12;0.90;99.90
20570;DHT22;10443;54.818;9.666;2022-11-21T07:43:43;0.80;99.90
20570;DHT22;10443;54.818;9.666;2022-11-21T07:46:10;0.80;99.90
20570;DHT22;10443;54.818;9.666;2022-11-21T07:48:40;0.80;99.90
20570;DHT22;10443;54.818;9.666;2022-11-21T07:51:08;0.90;99.90
20570;DHT22;10443;54.818;9.666;2022-11-21T07:53:47;0.90;99.90
20570;DHT22;10443;54.818;9.666;2022-11-21T07:56:17;0.90;99.90
20570;DHT22;10443;54.818;9.666;2022-11-21T07:58:45;0.90;99.90
20570;DHT22;10443;54.818;9.666;2022-11-21T08:01:16;0.90;99.90
20570;DHT22;10443;54.818;9.666;2022-11-21T08:03:48;0.90;99.90
20570;DHT22;10443;54.818;9.666;2022-11-21T08:06:25;0.90;99.90
20570;DHT22;10443;54.818;9.666;2022-11-21T08:09:02;1.00;99.90
20570;DHT22;10443;54.818;9.666;2022-11-21T08:11:38;1.00;99.90
20570;DHT22;10443;54.818;9.666;2022-11-21T08:14:20;1.00;99.90
20570;DHT22;10443;54.818;9.666;2022-11-21T08:16:51;0.90;99.90
20570;DHT22;10443;54.818;9.666;2022-11-21T08:19:19;0.90;99.90
20570;DHT22;10443;54.818;9.666;2022-11-21T08:21:46;1.00;99.90
20570;DHT22;10443;54.818;9.666;2022-11-21T08:24:21;1.00;99.90
20570;DHT22;10443;54.818;9.666;2022-11-21T08:27:05;1.00;99.90
20570;DHT22;10443;54.818;9.666;2022-11-21T08:29:47;1.00;99.90
20570;DHT22;10443;54.818;9.666;2022-11-21T08:32:15;1.00;99.90
20570;DHT22;10443;54.818;9.666;2022-11-21T08:34:45;1.00;99.90
20570;DHT22;10443;54.818;9.666;2022-11-21T08:39:40;1.10;99.90
20570;DHT22;10443;54.818;9.666;2022-11-21T08:42:09;1.10;99.90
20570;DHT22;10443;54.818;9.666;2022-11-21T08:44:36;1.10;99.90
20570;DHT22;10443;54.818;9.666;2022-11-21T08:47:04;1.10;99.90
20570;DHT22;10443;54.818;9.666;2022-11-21T08:49:32;1.10;99.90
20570;DHT22;10443;54.818;9.666;2022-11-21T08:52:01;1.20;99.90
20570;DHT22;10443;54.818;9.666;2022-11-21T08:54:28;1.10;99.90
20570;DHT22;10443;54.818;9.666;2022-11-21T08:56:56;1.20;99.90
20570;DHT22;10443;54.818;9.666;2022-11-21T08:59:26;1.20;99.90
20570;DHT22;10443;54.818;9.666;2022-11-21T09:01:54;1.20;99.90
20570;DHT22;10443;54.818;9.666;2022-11-21T09:04:21;1.20;99.90
20570;DHT22;10443;54.818;9.666;2022-11-21T09:06:49;1.20;99.90
20570;DHT22;10443;54.818;9.666;2022-11-21T09:09:19;1.30;99.90
20570;DHT22;10443;54.818;9.666;2022-11-21T09:11:51;1.30;99.90
20570;DHT22;10443;54.818;9.666;2022-11-21T09:14:19;1.30;99.90
20570;DHT22;10443;54.818;9.666;2022-11-21T09:17:05;1.30;99.90
20570;DHT22;10443;54.818;9.666;2022-11-21T09:19:50;1.40;99.90
20570;DHT22;10443;54.818;9.666;2022-11-21T09:22:18;1.40;99.90
20570;DHT22;10443;54.818;9.666;2022-11-21T09:24:45;1.40;99.90
20570;DHT22;10443;54.818;9.666;2022-11-21T09:27:12;1.50;99.90
20570;DHT22;10443;54.818;9.666;2022-11-21T09:29:39;1.50;99.90
20570;DHT22;10443;54.818;9.666;2022-11-21T09:32:07;1.60;99.90
20570;DHT22;10443;54.818;9.666;2022-11-21T09:34:34;1.60;99.90
20570;DHT22;10443;54.818;9.666;2022-11-21T09:37:01;1.60;99.90
20570;DHT22;10443;54.818;9.666;2022-11-21T09:39:28;1.60;99.90
20570;DHT22;10443;54.818;9.666;2022-11-21T09:42:06;1.60;99.90
20570;DHT22;10443;54.818;9.666;2022-11-21T09:44:44;1.60;99.90
20570;DHT22;10443;54.818;9.666;2022-11-21T09:47:26;1.70;99.90
20570;DHT22;10443;54.818;9.666;2022-11-21T09:50:15;1.70;99.90
20570;DHT22;10443;54.818;9.666;2022-11-21T09:55:26;1.70;99.90
20570;DHT22;10443;54.818;9.666;2022-11-21T09:57:56;1.70;99.90
20570;DHT22;10443;54.818;9.666;2022-11-21T10:00:25;1.80;99.90
20570;DHT22;10443;54.818;9.666;2022-11-21T10:02:52;1.80;99.90
20570;DHT22;10443;54.818;9.666;2022-11-21T10:05:44;1.80;99.90
20570;DHT22;10443;54.818;9.666;2022-11-21T10:08:34;1.90;99.90
20570;DHT22;10443;54.818;9.666;2022-11-21T10:11:26;1.90;99.90
20570;DHT22;10443;54.818;9.666;2022-11-21T10:16:48;2.00;99.90
20570;DHT22;10443;54.818;9.666;2022-11-21T10:19:30;2.10;99.90
20570;DHT22;10443;54.818;9.666;2022-11-21T10:25:31;2.10;99.90
20570;DHT22;10443;54.818;9.666;2022-11-21T10:28:03;2.10;99.90
20570;DHT22;10443;54.818;9.666;2022-11-21T10:30:31;2.20;99.90
20570;DHT22;10443;54.818;9.666;2022-11-21T10:33:03;2.20;99.90
20570;DHT22;10443;54.818;9.666;2022-11-21T10:35:35;2.20;99.90
20570;DHT22;10443;54.818;9.666;2022-11-21T10:38:24;2.20;99.90
20570;DHT22;10443;54.818;9.666;2022-11-21T10:43:33;2.20;99.90
20570;DHT22;10443;54.818;9.666;2022-11-21T10:46:20;2.20;99.90
20570;DHT22;10443;54.818;9.666;2022-11-21T10:48:59;2.20;99.90
20570;DHT22;10443;54.818;9.666;2022-11-21T10:51:37;2.30;99.90
20570;DHT22;10443;54.818;9.666;2022-11-21T10:54:09;2.30;99.90
20570;DHT22;10443;54.818;9.666;2022-11-21T10:57:06;2.40;99.90
20570;DHT22;10443;54.818;9.666;2022-11-21T10:59:39;2.50;99.90
20570;DHT22;10443;54.818;9.666;2022-11-21T11:04:40;2.60;99.90
20570;DHT22;10443;54.818;9.666;2022-11-21T11:07:25;2.70;99.90
20570;DHT22;10443;54.818;9.666;2022-11-21T11:12:40;2.80;99.90
20570;DHT22;10443;54.818;9.666;2022-11-21T11:16:13;2.80;99.90
20570;DHT22;10443;54.818;9.666;2022-11-21T11:21:30;2.90;99.90
20570;DHT22;10443;54.818;9.666;2022-11-21T11:24:27;3.00;99.90
20570;DHT22;10443;54.818;9.666;2022-11-21T11:26:59;3.00;99.90
20570;DHT22;10443;54.818;9.666;2022-11-21T11:29:28;3.10;99.90
20570;DHT22;10443;54.818;9.666;2022-11-21T11:34:38;3.20;99.90
20570;DHT22;10443;54.818;9.666;2022-11-21T11:43:12;3.30;99.90
20570;DHT22;10443;54.818;9.666;2022-11-21T11:46:13;3.30;99.90
20570;DHT22;10443;54.818;9.666;2022-11-21T11:49:07;3.30;99.90
20570;DHT22;10443;54.818;9.666;2022-11-21T11:51:52;3.30;99.90
20570;DHT22;10443;54.818;9.666;2022-11-21T11:54:33;3.30;99.90
20570;DHT22;10443;54.818;9.666;2022-11-21T11:57:03;3.30;99.90
20570;DHT22;10443;54.818;9.666;2022-11-21T11:59:36;3.30;99.90
20570;DHT22;10443;54.818;9.666;2022-11-21T12:02:23;3.20;99.90
20570;DHT22;10443;54.818;9.666;2022-11-21T12:05:38;3.20;99.90
20570;DHT22;10443;54.818;9.666;2022-11-21T12:08:03;3.20;99.90
20570;DHT22;10443;54.818;9.666;2022-11-21T12:10:58;3.10;99.90
20570;DHT22;10443;54.818;9.666;2022-11-21T12:13:52;3.10;99.90
20570;DHT22;10443;54.818;9.666;2022-11-21T12:16:23;3.00;99.90
20570;DHT22;10443;54.818;9.666;2022-11-21T12:18:59;3.00;99.90
20570;DHT22;10443;54.818;9.666;2022-11-21T12:21:28;3.00;99.90
20570;DHT22;10443;54.818;9.666;2022-11-21T12:23:57;3.00;99.90
20570;DHT22;10443;54.818;9.666;2022-11-21T12:26:39;3.00;99.90
20570;DHT22;10443;54.818;9.666;2022-11-21T12:32:59;2.90;99.90
20570;DHT22;10443;54.818;9.666;2022-11-21T12:38:15;3.00;99.90
20570;DHT22;10443;54.818;9.666;2022-11-21T12:50:34;3.00;99.90
20570;DHT22;10443;54.818;9.666;2022-11-21T12:54:13;3.00;99.90
20570;DHT22;10443;54.818;9.666;2022-11-21T12:56:39;3.00;99.90
20570;DHT22;10443;54.818;9.666;2022-11-21T12:59:12;3.00;99.90
20570;DHT22;10443;54.818;9.666;2022-11-21T13:02:05;3.00;99.90
20570;DHT22;10443;54.818;9.666;2022-11-21T13:04:40;3.00;99.90
20570;DHT22;10443;54.818;9.666;2022-11-21T13:07:10;3.00;99.90
20570;DHT22;10443;54.818;9.666;2022-11-21T13:09:40;3.00;99.90
20570;DHT22;10443;54.818;9.666;2022-11-21T13:12:30;3.00;99.90
20570;DHT22;10443;54.818;9.666;2022-11-21T13:15:18;3.00;99.90
20570;DHT22;10443;54.818;9.666;2022-11-21T13:18:27;3.00;99.90
20570;DHT22;10443;54.818;9.666;2022-11-21T13:20:49;3.00;99.90
20570;DHT22;10443;54.818;9.666;2022-11-21T13:23:39;3.00;99.90
20570;DHT22;10443;54.818;9.666;2022-11-21T13:29:09;3.00;99.90
20570;DHT22;10443;54.818;9.666;2022-11-21T13:31:36;3.00;99.90
20570;DHT22;10443;54.818;9.666;2022-11-21T13:34:04;3.00;99.90
20570;DHT22;10443;54.818;9.666;2022-11-21T13:36:35;3.00;99.90
20570;DHT22;10443;54.818;9.666;2022-11-21T13:47:07;3.10;99.90
20570;DHT22;10443;54.818;9.666;2022-11-21T13:55:07;3.10;99.90
20570;DHT22;10443;54.818;9.666;2022-11-21T13:57:51;3.10;99.90
20570;DHT22;10443;54.818;9.666;2022-11-21T14:00:28;3.10;99.90
20570;DHT22;10443;54.818;9.666;2022-11-21T14:08:42;3.10;99.90
20570;DHT22;10443;54.818;9.666;2022-11-21T14:11:31;3.10;99.90
20570;DHT22;10443;54.818;9.666;2022-11-21T14:14:01;3.10;99.90
20570;DHT22;10443;54.818;9.666;2022-11-21T14:16:34;3.10;99.90
20570;DHT22;10443;54.818;9.666;2022-11-21T14:19:02;3.30;99.90
20570;DHT22;10443;54.818;9.666;2022-11-21T14:21:31;3.10;99.90
20570;DHT22;10443;54.818;9.666;2022-11-21T14:24:02;3.10;99.90
20570;DHT22;10443;54.818;9.666;2022-11-21T14:26:38;3.10;99.90
20570;DHT22;10443;54.818;9.666;2022-11-21T14:29:23;3.10;99.90
20570;DHT22;10443;54.818;9.666;2022-11-21T14:31:52;3.10;99.90
20570;DHT22;10443;54.818;9.666;2022-11-21T14:34:26;3.10;99.90
20570;DHT22;10443;54.818;9.666;2022-11-21T14:36:56;3.10;99.90
20570;DHT22;10443;54.818;9.666;2022-11-21T14:39:28;3.00;99.90
20570;DHT22;10443;54.818;9.666;2022-11-21T14:42:14;3.10;99.90
20570;DHT22;10443;54.818;9.666;2022-11-21T14:44:41;3.00;99.90
20570;DHT22;10443;54.818;9.666;2022-11-21T14:47:17;2.90;99.90
20570;DHT22;10443;54.818;9.666;2022-11-21T14:52:28;3.00;99.90
20570;DHT22;10443;54.818;9.666;2022-11-21T14:54:58;3.00;99.90
20570;DHT22;10443;54.818;9.666;2022-11-21T14:57:45;2.90;99.90
20570;DHT22;10443;54.818;9.666;2022-11-21T15:03:20;2.90;99.90
20570;DHT22;10443;54.818;9.666;2022-11-21T15:05:48;2.90;99.90
20570;DHT22;10443;54.818;9.666;2022-11-21T15:08:33;2.90;99.90
20570;DHT22;10443;54.818;9.666;2022-11-21T15:11:23;3.00;99.90
20570;DHT22;10443;54.818;9.666;2022-11-21T15:13:56;2.90;99.90
20570;DHT22;10443;54.818;9.666;2022-11-21T15:16:48;2.90;99.90
20570;DHT22;10443;54.818;9.666;2022-11-21T15:19:21;2.90;99.90
20570;DHT22;10443;54.818;9.666;2022-11-21T15:21:50;2.90;99.90
20570;DHT22;10443;54.818;9.666;2022-11-21T15:24:34;2.90;99.90
20570;DHT22;10443;54.818;9.666;2022-11-21T15:32:57;2.80;99.90
20570;DHT22;10443;54.818;9.666;2022-11-21T15:35:43;2.80;99.90
20570;DHT22;10443;54.818;9.666;2022-11-21T15:43:50;2.70;99.90
20570;DHT22;10443;54.818;9.666;2022-11-21T15:46:21;2.70;99.90
20570;DHT22;10443;54.818;9.666;2022-11-21T15:51:24;2.70;99.90
20570;DHT22;10443;54.818;9.666;2022-11-21T15:54:20;2.60;99.90
20570;DHT22;10443;54.818;9.666;2022-11-21T15:56:47;2.60;99.90
20570;DHT22;10443;54.818;9.666;2022-11-21T15:59:14;2.60;99.90
20570;DHT22;10443;54.818;9.666;2022-11-21T16:01:41;2.60;99.90
20570;DHT22;10443;54.818;9.666;2022-11-21T16:04:10;2.60;99.90
20570;DHT22;10443;54.818;9.666;2022-11-21T16:06:37;2.50;99.90
20570;DHT22;10443;54.818;9.666;2022-11-21T16:09:04;2.50;99.90
20570;DHT22;10443;54.818;9.666;2022-11-21T16:11:33;2.40;99.90
20570;DHT22;10443;54.818;9.666;2022-11-21T16:14:01;2.50;99.90
20570;DHT22;10443;54.818;9.666;2022-11-21T16:16:30;3.40;99.90
20570;DHT22;10443;54.818;9.666;2022-11-21T16:18:57;2.40;99.90
20570;DHT22;10443;54.818;9.666;2022-11-21T16:21:25;2.40;99.90
20570;DHT22;10443;54.818;9.666;2022-11-21T16:23:52;2.40;99.90
20570;DHT22;10443;54.818;9.666;2022-11-21T16:26:18;2.40;99.90
20570;DHT22;10443;54.818;9.666;2022-11-21T16:28:45;2.30;99.90
20570;DHT22;10443;54.818;9.666;2022-11-21T16:31:23;2.30;99.90
20570;DHT22;10443;54.818;9.666;2022-11-21T16:33:49;2.30;99.90
20570;DHT22;10443;54.818;9.666;2022-11-21T16:36:24;2.30;99.90
20570;DHT22;10443;54.818;9.666;2022-11-21T16:38:51;2.30;99.90
20570;DHT22;10443;54.818;9.666;2022-11-21T16:41:20;2.30;99.90
20570;DHT22;10443;54.818;9.666;2022-11-21T16:43:49;2.30;99.90
20570;DHT22;10443;54.818;9.666;2022-11-21T16:46:16;2.30;99.90
20570;DHT22;10443;54.818;9.666;2022-11-21T16:48:43;2.20;99.90
20570;DHT22;10443;54.818;9.666;2022-11-21T16:51:18;2.20;99.90
20570;DHT22;10443;54.818;9.666;2022-11-21T16:53:46;2.20;99.90
20570;DHT22;10443;54.818;9.666;2022-11-21T16:56:14;2.20;99.90
20570;DHT22;10443;54.818;9.666;2022-11-21T16:58:41;2.20;99.90
20570;DHT22;10443;54.818;9.666;2022-11-21T17:01:14;2.20;99.90
20570;DHT22;10443;54.818;9.666;2022-11-21T17:03:42;2.10;99.90
20570;DHT22;10443;54.818;9.666;2022-11-21T17:06:10;2.20;99.90
20570;DHT22;10443;54.818;9.666;2022-11-21T17:08:37;2.20;99.90
20570;DHT22;10443;54.818;9.666;2022-11-21T17:11:24;2.10;99.90
20570;DHT22;10443;54.818;9.666;2022-11-21T17:13:59;2.20;99.90
20570;DHT22;10443;54.818;9.666;2022-11-21T17:16:27;2.20;99.90
20570;DHT22;10443;54.818;9.666;2022-11-21T17:18:55;2.20;99.90
20570;DHT22;10443;54.818;9.666;2022-11-21T17:21:22;2.10;99.90
20570;DHT22;10443;54.818;9.666;2022-11-21T17:23:49;2.20;99.90
20570;DHT22;10443;54.818;9.666;2022-11-21T17:26:24;2.10;99.90
20570;DHT22;10443;54.818;9.666;2022-11-21T17:28:52;2.10;99.90
20570;DHT22;10443;54.818;9.666;2022-11-21T17:31:20;2.10;99.90
20570;DHT22;10443;54.818;9.666;2022-11-21T17:33:47;2.10;99.90
20570;DHT22;10443;54.818;9.666;2022-11-21T17:36:19;2.10;99.90
20570;DHT22;10443;54.818;9.666;2022-11-21T17:38:46;2.10;99.90
20570;DHT22;10443;54.818;9.666;2022-11-21T17:41:16;2.10;99.90
20570;DHT22;10443;54.818;9.666;2022-11-21T17:43:43;2.10;99.90
20570;DHT22;10443;54.818;9.666;2022-11-21T17:46:17;2.10;99.90
20570;DHT22;10443;54.818;9.666;2022-11-21T17:48:46;2.00;99.90
20570;DHT22;10443;54.818;9.666;2022-11-21T17:51:23;2.00;99.90